sensor_id;sensor_type;location;lat;lon;timestamp;P1;durP1;ratioP1;P2;durP2;ratioP2
29728;SDS011;20055;51.498;11.960;2023-07-08T00:00:42;3.38;;;1.38;;
29728;SDS011;20055;51.498;11.960;2023-07-08T00:03:09;5.30;;;1.50;;
29728;SDS011;20055;51.498;11.960;2023-07-08T00:05:35;2.28;;;1.20;;
29728;SDS011;20055;51.498;11.960;2023-07-08T00:08:01;5.32;;;1.73;;
29728;SDS011;20055;51.498;11.960;2023-07-08T00:10:28;2.80;;;1.27;;
29728;SDS011;20055;51.498;11.960;2023-07-08T00:12:56;4.13;;;2.05;;
29728;SDS011;20055;51.498;11.960;2023-07-08T00:15:24;8.80;;;1.50;;
29728;SDS011;20055;51.498;11.960;2023-07-08T00:17:53;3.37;;;1.63;;
29728;SDS011;20055;51.498;11.960;2023-07-08T00:20:21;3.88;;;1.27;;
29728;SDS011;20055;51.498;11.960;2023-07-08T00:22:58;3.53;;;1.30;;
29728;SDS011;20055;51.498;11.960;2023-07-08T00:25:28;2.03;;;1.30;;
29728;SDS011;20055;51.498;11.960;2023-07-08T00:27:55;8.55;;;1.75;;
29728;SDS011;20055;51.498;11.960;2023-07-08T00:32:49;2.42;;;1.17;;
29728;SDS011;20055;51.498;11.960;2023-07-08T00:38:10;5.88;;;1.38;;
29728;SDS011;20055;51.498;11.960;2023-07-08T00:43:19;3.83;;;1.20;;
29728;SDS011;20055;51.498;11.960;2023-07-08T00:45:50;3.60;;;1.20;;
29728;SDS011;20055;51.498;11.960;2023-07-08T00:48:33;2.63;;;1.25;;
29728;SDS011;20055;51.498;11.960;2023-07-08T00:51:01;3.20;;;1.33;;
29728;SDS011;20055;51.498;11.960;2023-07-08T01:01:40;3.17;;;1.52;;
29728;SDS011;20055;51.498;11.960;2023-07-08T01:04:10;2.80;;;1.35;;
29728;SDS011;20055;51.498;11.960;2023-07-08T01:06:44;1.70;;;1.05;;
29728;SDS011;20055;51.498;11.960;2023-07-08T01:09:33;1.20;;;1.10;;
29728;SDS011;20055;51.498;11.960;2023-07-08T01:12:03;2.28;;;1.00;;
29728;SDS011;20055;51.498;11.960;2023-07-08T01:14:34;2.55;;;1.30;;
29728;SDS011;20055;51.498;11.960;2023-07-08T01:17:04;2.00;;;1.10;;
29728;SDS011;20055;51.498;11.960;2023-07-08T01:19:30;1.08;;;0.98;;
29728;SDS011;20055;51.498;11.960;2023-07-08T01:22:00;2.03;;;1.15;;
29728;SDS011;20055;51.498;11.960;2023-07-08T01:24:29;5.18;;;1.20;;
29728;SDS011;20055;51.498;11.960;2023-07-08T01:27:00;2.75;;;1.30;;
29728;SDS011;20055;51.498;11.960;2023-07-08T01:29:27;3.72;;;1.20;;
29728;SDS011;20055;51.498;11.960;2023-07-08T01:31:55;3.53;;;0.90;;
29728;SDS011;20055;51.498;11.960;2023-07-08T01:34:22;4.38;;;1.00;;
29728;SDS011;20055;51.498;11.960;2023-07-08T01:36:50;2.88;;;0.90;;
29728;SDS011;20055;51.498;11.960;2023-07-08T01:39:20;4.82;;;1.52;;
29728;SDS011;20055;51.498;11.960;2023-07-08T01:41:48;3.97;;;1.98;;
29728;SDS011;20055;51.498;11.960;2023-07-08T01:44:28;3.70;;;2.25;;
29728;SDS011;20055;51.498;11.960;2023-07-08T01:47:00;1.52;;;1.20;;
29728;SDS011;20055;51.498;11.960;2023-07-08T01:49:29;2.08;;;1.25;;
29728;SDS011;20055;51.498;11.960;2023-07-08T01:51:57;2.65;;;0.90;;
29728;SDS011;20055;51.498;11.960;2023-07-08T01:54:25;1.33;;;0.82;;
29728;SDS011;20055;51.498;11.960;2023-07-08T01:56:55;1.70;;;1.20;;
29728;SDS011;20055;51.498;11.960;2023-07-08T01:59:23;2.83;;;0.88;;
29728;SDS011;20055;51.498;11.960;2023-07-08T02:01:50;2.22;;;1.20;;
29728;SDS011;20055;51.498;11.960;2023-07-08T02:04:21;2.63;;;1.17;;
29728;SDS011;20055;51.498;11.960;2023-07-08T02:06:54;1.05;;;0.80;;
29728;SDS011;20055;51.498;11.960;2023-07-08T02:09:21;1.08;;;0.85;;
29728;SDS011;20055;51.498;11.960;2023-07-08T02:11:48;2.45;;;1.00;;
29728;SDS011;20055;51.498;11.960;2023-07-08T02:14:14;1.75;;;1.10;;
29728;SDS011;20055;51.498;11.960;2023-07-08T02:16:40;5.85;;;1.08;;
29728;SDS011;20055;51.498;11.960;2023-07-08T02:19:07;2.88;;;1.20;;
29728;SDS011;20055;51.498;11.960;2023-07-08T02:21:33;1.80;;;1.10;;
29728;SDS011;20055;51.498;11.960;2023-07-08T02:24:00;1.20;;;0.82;;
29728;SDS011;20055;51.498;11.960;2023-07-08T02:26:26;1.13;;;0.90;;
29728;SDS011;20055;51.498;11.960;2023-07-08T02:28:52;1.60;;;1.02;;
29728;SDS011;20055;51.498;11.960;2023-07-08T02:31:19;1.85;;;1.27;;
29728;SDS011;20055;51.498;11.960;2023-07-08T02:33:47;2.53;;;1.20;;
29728;SDS011;20055;51.498;11.960;2023-07-08T02:36:13;1.67;;;0.90;;
29728;SDS011;20055;51.498;11.960;2023-07-08T02:38:40;2.22;;;1.25;;
29728;SDS011;20055;51.498;11.960;2023-07-08T02:41:07;1.75;;;1.05;;
29728;SDS011;20055;51.498;11.960;2023-07-08T02:43:34;2.50;;;1.00;;
29728;SDS011;20055;51.498;11.960;2023-07-08T02:46:01;1.50;;;0.98;;
29728;SDS011;20055;51.498;11.960;2023-07-08T02:48:27;1.85;;;1.17;;
29728;SDS011;20055;51.498;11.960;2023-07-08T02:50:58;2.15;;;1.17;;
29728;SDS011;20055;51.498;11.960;2023-07-08T02:53:25;1.33;;;1.23;;
29728;SDS011;20055;51.498;11.960;2023-07-08T02:55:51;2.00;;;1.05;;
29728;SDS011;20055;51.498;11.960;2023-07-08T02:58:17;2.03;;;1.08;;
29728;SDS011;20055;51.498;11.960;2023-07-08T03:00:43;4.28;;;0.95;;
29728;SDS011;20055;51.498;11.960;2023-07-08T03:03:10;1.27;;;0.80;;
29728;SDS011;20055;51.498;11.960;2023-07-08T03:05:36;1.55;;;1.20;;
29728;SDS011;20055;51.498;11.960;2023-07-08T03:08:02;2.40;;;1.27;;
29728;SDS011;20055;51.498;11.960;2023-07-08T03:10:29;1.85;;;1.17;;
29728;SDS011;20055;51.498;11.960;2023-07-08T03:12:55;2.70;;;1.40;;
29728;SDS011;20055;51.498;11.960;2023-07-08T03:15:22;1.60;;;0.98;;
29728;SDS011;20055;51.498;11.960;2023-07-08T03:17:48;1.00;;;0.90;;
29728;SDS011;20055;51.498;11.960;2023-07-08T03:20:15;2.45;;;0.95;;
29728;SDS011;20055;51.498;11.960;2023-07-08T03:22:43;1.20;;;1.00;;
29728;SDS011;20055;51.498;11.960;2023-07-08T03:25:11;2.60;;;1.05;;
29728;SDS011;20055;51.498;11.960;2023-07-08T03:27:37;1.20;;;0.88;;
29728;SDS011;20055;51.498;11.960;2023-07-08T03:30:05;1.08;;;0.82;;
29728;SDS011;20055;51.498;11.960;2023-07-08T03:32:34;2.35;;;1.00;;
29728;SDS011;20055;51.498;11.960;2023-07-08T03:35:01;1.95;;;1.00;;
29728;SDS011;20055;51.498;11.960;2023-07-08T03:37:27;1.70;;;1.10;;
29728;SDS011;20055;51.498;11.960;2023-07-08T03:39:53;4.28;;;0.90;;
29728;SDS011;20055;51.498;11.960;2023-07-08T03:42:20;4.53;;;0.90;;
29728;SDS011;20055;51.498;11.960;2023-07-08T03:44:46;1.20;;;0.98;;
29728;SDS011;20055;51.498;11.960;2023-07-08T03:47:12;2.58;;;1.30;;
29728;SDS011;20055;51.498;11.960;2023-07-08T03:49:39;1.77;;;1.20;;
29728;SDS011;20055;51.498;11.960;2023-07-08T03:52:07;1.33;;;0.90;;
29728;SDS011;20055;51.498;11.960;2023-07-08T03:54:41;1.90;;;0.90;;
29728;SDS011;20055;51.498;11.960;2023-07-08T03:57:07;1.40;;;1.00;;
29728;SDS011;20055;51.498;11.960;2023-07-08T03:59:34;2.13;;;1.35;;
29728;SDS011;20055;51.498;11.960;2023-07-08T04:02:00;3.05;;;1.00;;
29728;SDS011;20055;51.498;11.960;2023-07-08T04:04:28;1.67;;;1.20;;
29728;SDS011;20055;51.498;11.960;2023-07-08T04:06:54;1.25;;;1.00;;
29728;SDS011;20055;51.498;11.960;2023-07-08T04:09:21;2.10;;;1.10;;
29728;SDS011;20055;51.498;11.960;2023-07-08T04:11:47;2.05;;;1.20;;
29728;SDS011;20055;51.498;11.960;2023-07-08T04:14:13;2.67;;;1.20;;
29728;SDS011;20055;51.498;11.960;2023-07-08T04:19:19;0.98;;;0.88;;
29728;SDS011;20055;51.498;11.960;2023-07-08T04:21:48;1.42;;;0.90;;
29728;SDS011;20055;51.498;11.960;2023-07-08T04:24:15;1.52;;;0.77;;
29728;SDS011;20055;51.498;11.960;2023-07-08T04:26:43;1.20;;;1.10;;
29728;SDS011;20055;51.498;11.960;2023-07-08T04:29:12;1.33;;;0.88;;
29728;SDS011;20055;51.498;11.960;2023-07-08T04:31:39;3.53;;;0.90;;
29728;SDS011;20055;51.498;11.960;2023-07-08T04:34:07;1.13;;;0.90;;
29728;SDS011;20055;51.498;11.960;2023-07-08T04:36:34;1.52;;;0.90;;
29728;SDS011;20055;51.498;11.960;2023-07-08T04:39:01;1.88;;;1.05;;
29728;SDS011;20055;51.498;11.960;2023-07-08T04:41:31;1.00;;;0.90;;
29728;SDS011;20055;51.498;11.960;2023-07-08T04:43:58;1.65;;;1.00;;
29728;SDS011;20055;51.498;11.960;2023-07-08T04:49:01;1.45;;;0.90;;
29728;SDS011;20055;51.498;11.960;2023-07-08T04:51:29;1.25;;;0.95;;
29728;SDS011;20055;51.498;11.960;2023-07-08T04:53:55;1.23;;;0.88;;
29728;SDS011;20055;51.498;11.960;2023-07-08T04:56:22;1.33;;;1.00;;
29728;SDS011;20055;51.498;11.960;2023-07-08T04:58:49;2.80;;;1.00;;
29728;SDS011;20055;51.498;11.960;2023-07-08T05:01:16;1.75;;;0.88;;
29728;SDS011;20055;51.498;11.960;2023-07-08T05:03:42;1.38;;;0.80;;
29728;SDS011;20055;51.498;11.960;2023-07-08T05:06:08;1.98;;;0.95;;
29728;SDS011;20055;51.498;11.960;2023-07-08T05:08:34;1.30;;;0.93;;
29728;SDS011;20055;51.498;11.960;2023-07-08T05:11:00;1.33;;;0.90;;
29728;SDS011;20055;51.498;11.960;2023-07-08T05:13:27;1.55;;;1.08;;
29728;SDS011;20055;51.498;11.960;2023-07-08T05:15:53;1.42;;;1.15;;
29728;SDS011;20055;51.498;11.960;2023-07-08T05:18:19;1.08;;;1.00;;
29728;SDS011;20055;51.498;11.960;2023-07-08T05:20:50;1.10;;;1.00;;
29728;SDS011;20055;51.498;11.960;2023-07-08T05:23:16;2.17;;;0.90;;
29728;SDS011;20055;51.498;11.960;2023-07-08T05:25:43;0.90;;;0.70;;
29728;SDS011;20055;51.498;11.960;2023-07-08T05:28:09;0.82;;;0.70;;
29728;SDS011;20055;51.498;11.960;2023-07-08T05:30:35;2.80;;;0.90;;
29728;SDS011;20055;51.498;11.960;2023-07-08T05:33:01;1.30;;;0.90;;
29728;SDS011;20055;51.498;11.960;2023-07-08T05:35:28;1.25;;;0.90;;
29728;SDS011;20055;51.498;11.960;2023-07-08T05:37:54;13.63;;;4.10;;
29728;SDS011;20055;51.498;11.960;2023-07-08T05:40:20;13.30;;;4.15;;
29728;SDS011;20055;51.498;11.960;2023-07-08T05:42:46;8.10;;;3.40;;
29728;SDS011;20055;51.498;11.960;2023-07-08T05:45:13;7.38;;;1.95;;
29728;SDS011;20055;51.498;11.960;2023-07-08T05:47:39;5.85;;;3.22;;
29728;SDS011;20055;51.498;11.960;2023-07-08T05:50:05;11.00;;;4.40;;
29728;SDS011;20055;51.498;11.960;2023-07-08T05:52:32;9.63;;;3.60;;
29728;SDS011;20055;51.498;11.960;2023-07-08T05:54:58;12.95;;;4.35;;
29728;SDS011;20055;51.498;11.960;2023-07-08T05:57:25;11.25;;;4.40;;
29728;SDS011;20055;51.498;11.960;2023-07-08T05:59:51;9.48;;;4.40;;
29728;SDS011;20055;51.498;11.960;2023-07-08T06:02:18;16.10;;;4.90;;
29728;SDS011;20055;51.498;11.960;2023-07-08T06:04:51;8.15;;;4.80;;
29728;SDS011;20055;51.498;11.960;2023-07-08T06:07:17;11.38;;;4.80;;
29728;SDS011;20055;51.498;11.960;2023-07-08T06:09:43;8.00;;;4.20;;
29728;SDS011;20055;51.498;11.960;2023-07-08T06:12:10;9.77;;;4.57;;
29728;SDS011;20055;51.498;11.960;2023-07-08T06:14:37;7.45;;;4.53;;
29728;SDS011;20055;51.498;11.960;2023-07-08T06:17:04;12.35;;;4.53;;
29728;SDS011;20055;51.498;11.960;2023-07-08T06:19:31;11.93;;;4.47;;
29728;SDS011;20055;51.498;11.960;2023-07-08T06:21:58;9.52;;;4.35;;
29728;SDS011;20055;51.498;11.960;2023-07-08T06:24:24;8.82;;;3.97;;
29728;SDS011;20055;51.498;11.960;2023-07-08T06:26:50;16.33;;;4.93;;
29728;SDS011;20055;51.498;11.960;2023-07-08T06:29:16;14.07;;;4.60;;
29728;SDS011;20055;51.498;11.960;2023-07-08T06:31:45;9.13;;;4.78;;
29728;SDS011;20055;51.498;11.960;2023-07-08T06:34:11;8.25;;;4.63;;
29728;SDS011;20055;51.498;11.960;2023-07-08T06:36:37;7.57;;;4.07;;
29728;SDS011;20055;51.498;11.960;2023-07-08T06:39:04;7.78;;;4.32;;
29728;SDS011;20055;51.498;11.960;2023-07-08T06:41:33;19.20;;;5.22;;
29728;SDS011;20055;51.498;11.960;2023-07-08T06:43:59;11.32;;;4.57;;
29728;SDS011;20055;51.498;11.960;2023-07-08T06:46:28;14.32;;;5.05;;
29728;SDS011;20055;51.498;11.960;2023-07-08T06:48:54;10.15;;;4.55;;
29728;SDS011;20055;51.498;11.960;2023-07-08T06:51:20;11.15;;;4.60;;
29728;SDS011;20055;51.498;11.960;2023-07-08T06:53:46;14.35;;;4.40;;
29728;SDS011;20055;51.498;11.960;2023-07-08T06:56:13;9.30;;;4.50;;
29728;SDS011;20055;51.498;11.960;2023-07-08T06:58:39;6.28;;;4.05;;
29728;SDS011;20055;51.498;11.960;2023-07-08T07:01:05;8.77;;;4.57;;
29728;SDS011;20055;51.498;11.960;2023-07-08T07:03:32;11.88;;;4.80;;
29728;SDS011;20055;51.498;11.960;2023-07-08T07:05:58;7.78;;;4.28;;
29728;SDS011;20055;51.498;11.960;2023-07-08T07:08:24;10.95;;;4.45;;
29728;SDS011;20055;51.498;11.960;2023-07-08T07:10:50;10.23;;;4.55;;
29728;SDS011;20055;51.498;11.960;2023-07-08T07:13:16;9.98;;;4.70;;
29728;SDS011;20055;51.498;11.960;2023-07-08T07:15:43;8.07;;;4.72;;
29728;SDS011;20055;51.498;11.960;2023-07-08T07:18:09;6.95;;;3.72;;
29728;SDS011;20055;51.498;11.960;2023-07-08T07:20:36;7.38;;;4.32;;
29728;SDS011;20055;51.498;11.960;2023-07-08T07:23:03;10.05;;;4.78;;
29728;SDS011;20055;51.498;11.960;2023-07-08T07:25:29;15.13;;;4.47;;
29728;SDS011;20055;51.498;11.960;2023-07-08T07:27:56;8.95;;;4.63;;
29728;SDS011;20055;51.498;11.960;2023-07-08T07:30:23;8.05;;;4.30;;
29728;SDS011;20055;51.498;11.960;2023-07-08T07:32:49;6.97;;;4.20;;
29728;SDS011;20055;51.498;11.960;2023-07-08T07:35:16;7.75;;;4.18;;
29728;SDS011;20055;51.498;11.960;2023-07-08T07:37:42;8.57;;;4.75;;
29728;SDS011;20055;51.498;11.960;2023-07-08T07:40:09;15.20;;;5.03;;
29728;SDS011;20055;51.498;11.960;2023-07-08T07:42:39;11.60;;;4.50;;
29728;SDS011;20055;51.498;11.960;2023-07-08T07:45:07;6.07;;;3.92;;
29728;SDS011;20055;51.498;11.960;2023-07-08T07:47:34;6.55;;;3.63;;
29728;SDS011;20055;51.498;11.960;2023-07-08T07:50:01;7.15;;;4.10;;
29728;SDS011;20055;51.498;11.960;2023-07-08T07:52:28;9.52;;;4.78;;
29728;SDS011;20055;51.498;11.960;2023-07-08T07:54:55;7.25;;;4.47;;
29728;SDS011;20055;51.498;11.960;2023-07-08T07:57:22;8.20;;;4.65;;
29728;SDS011;20055;51.498;11.960;2023-07-08T07:59:48;5.75;;;3.92;;
29728;SDS011;20055;51.498;11.960;2023-07-08T08:02:16;9.48;;;4.10;;
29728;SDS011;20055;51.498;11.960;2023-07-08T08:04:42;8.48;;;4.57;;
29728;SDS011;20055;51.498;11.960;2023-07-08T08:07:09;6.65;;;3.75;;
29728;SDS011;20055;51.498;11.960;2023-07-08T08:09:36;11.18;;;4.70;;
29728;SDS011;20055;51.498;11.960;2023-07-08T08:12:03;9.75;;;4.75;;
29728;SDS011;20055;51.498;11.960;2023-07-08T08:14:30;7.85;;;4.47;;
29728;SDS011;20055;51.498;11.960;2023-07-08T08:16:56;11.18;;;3.83;;
29728;SDS011;20055;51.498;11.960;2023-07-08T08:19:23;7.22;;;4.60;;
29728;SDS011;20055;51.498;11.960;2023-07-08T08:21:49;8.45;;;4.10;;
29728;SDS011;20055;51.498;11.960;2023-07-08T08:24:15;11.27;;;4.10;;
29728;SDS011;20055;51.498;11.960;2023-07-08T08:26:41;8.38;;;4.40;;
29728;SDS011;20055;51.498;11.960;2023-07-08T08:29:07;11.50;;;4.15;;
29728;SDS011;20055;51.498;11.960;2023-07-08T08:31:34;11.38;;;4.22;;
29728;SDS011;20055;51.498;11.960;2023-07-08T08:34:00;9.82;;;4.57;;
29728;SDS011;20055;51.498;11.960;2023-07-08T08:36:27;8.10;;;3.97;;
29728;SDS011;20055;51.498;11.960;2023-07-08T08:38:53;5.85;;;3.97;;
29728;SDS011;20055;51.498;11.960;2023-07-08T08:41:21;6.35;;;3.97;;
29728;SDS011;20055;51.498;11.960;2023-07-08T08:43:56;10.02;;;4.10;;
29728;SDS011;20055;51.498;11.960;2023-07-08T08:51:47;8.30;;;4.45;;
29728;SDS011;20055;51.498;11.960;2023-07-08T08:54:15;16.02;;;4.40;;
29728;SDS011;20055;51.498;11.960;2023-07-08T08:57:00;8.65;;;5.25;;
29728;SDS011;20055;51.498;11.960;2023-07-08T09:05:07;13.43;;;4.90;;
29728;SDS011;20055;51.498;11.960;2023-07-08T09:07:45;5.28;;;3.83;;
29728;SDS011;20055;51.498;11.960;2023-07-08T09:10:31;6.43;;;3.97;;
29728;SDS011;20055;51.498;11.960;2023-07-08T09:13:43;12.55;;;4.80;;
29728;SDS011;20055;51.498;11.960;2023-07-08T09:21:36;9.05;;;4.95;;
29728;SDS011;20055;51.498;11.960;2023-07-08T09:24:21;8.57;;;4.45;;
29728;SDS011;20055;51.498;11.960;2023-07-08T09:26:55;9.63;;;4.30;;
29728;SDS011;20055;51.498;11.960;2023-07-08T09:29:26;8.60;;;3.88;;
29728;SDS011;20055;51.498;11.960;2023-07-08T09:39:20;18.02;;;4.75;;
29728;SDS011;20055;51.498;11.960;2023-07-08T09:41:48;7.57;;;4.45;;
29728;SDS011;20055;51.498;11.960;2023-07-08T09:44:16;10.02;;;3.85;;
29728;SDS011;20055;51.498;11.960;2023-07-08T09:46:52;8.77;;;3.60;;
29728;SDS011;20055;51.498;11.960;2023-07-08T09:49:32;7.68;;;4.30;;
29728;SDS011;20055;51.498;11.960;2023-07-08T09:52:01;6.63;;;4.43;;
29728;SDS011;20055;51.498;11.960;2023-07-08T09:54:28;12.23;;;4.43;;
29728;SDS011;20055;51.498;11.960;2023-07-08T09:56:58;8.52;;;3.47;;
29728;SDS011;20055;51.498;11.960;2023-07-08T09:59:28;8.68;;;4.35;;
29728;SDS011;20055;51.498;11.960;2023-07-08T10:02:00;8.63;;;4.40;;
29728;SDS011;20055;51.498;11.960;2023-07-08T10:04:29;11.05;;;4.47;;
29728;SDS011;20055;51.498;11.960;2023-07-08T10:06:56;8.60;;;4.03;;
29728;SDS011;20055;51.498;11.960;2023-07-08T10:09:23;9.95;;;3.95;;
29728;SDS011;20055;51.498;11.960;2023-07-08T10:11:52;10.63;;;3.92;;
29728;SDS011;20055;51.498;11.960;2023-07-08T10:14:28;7.82;;;4.05;;
29728;SDS011;20055;51.498;11.960;2023-07-08T10:16:59;9.90;;;4.22;;
29728;SDS011;20055;51.498;11.960;2023-07-08T10:19:25;11.85;;;4.18;;
29728;SDS011;20055;51.498;11.960;2023-07-08T10:22:05;6.82;;;4.05;;
29728;SDS011;20055;51.498;11.960;2023-07-08T10:30:39;8.82;;;3.90;;
29728;SDS011;20055;51.498;11.960;2023-07-08T10:33:33;9.32;;;3.90;;
29728;SDS011;20055;51.498;11.960;2023-07-08T10:36:16;7.03;;;3.97;;
29728;SDS011;20055;51.498;11.960;2023-07-08T10:42:02;8.52;;;4.00;;
29728;SDS011;20055;51.498;11.960;2023-07-08T10:52:58;6.43;;;4.07;;
29728;SDS011;20055;51.498;11.960;2023-07-08T10:56:07;7.65;;;3.95;;
29728;SDS011;20055;51.498;11.960;2023-07-08T11:01:14;6.93;;;4.22;;
29728;SDS011;20055;51.498;11.960;2023-07-08T11:04:07;9.02;;;3.80;;
29728;SDS011;20055;51.498;11.960;2023-07-08T11:06:54;5.72;;;3.90;;
29728;SDS011;20055;51.498;11.960;2023-07-08T11:09:27;9.35;;;4.03;;
29728;SDS011;20055;51.498;11.960;2023-07-08T11:12:07;7.85;;;3.80;;
29728;SDS011;20055;51.498;11.960;2023-07-08T11:14:56;8.95;;;3.70;;
29728;SDS011;20055;51.498;11.960;2023-07-08T11:17:36;9.70;;;3.78;;
29728;SDS011;20055;51.498;11.960;2023-07-08T11:20:24;10.77;;;3.70;;
29728;SDS011;20055;51.498;11.960;2023-07-08T11:22:59;5.93;;;3.55;;
29728;SDS011;20055;51.498;11.960;2023-07-08T11:25:34;7.78;;;3.85;;
29728;SDS011;20055;51.498;11.960;2023-07-08T11:28:03;10.13;;;4.47;;
29728;SDS011;20055;51.498;11.960;2023-07-08T11:30:31;12.45;;;3.88;;
29728;SDS011;20055;51.498;11.960;2023-07-08T11:33:02;11.35;;;3.67;;
29728;SDS011;20055;51.498;11.960;2023-07-08T11:38:12;11.93;;;3.83;;
29728;SDS011;20055;51.498;11.960;2023-07-08T11:41:01;8.75;;;4.05;;
29728;SDS011;20055;51.498;11.960;2023-07-08T11:43:42;7.10;;;4.53;;
29728;SDS011;20055;51.498;11.960;2023-07-08T11:46:33;8.10;;;3.75;;
29728;SDS011;20055;51.498;11.960;2023-07-08T11:49:21;5.82;;;3.55;;
29728;SDS011;20055;51.498;11.960;2023-07-08T11:51:48;8.75;;;4.65;;
29728;SDS011;20055;51.498;11.960;2023-07-08T11:54:19;6.53;;;3.88;;
29728;SDS011;20055;51.498;11.960;2023-07-08T11:57:06;6.28;;;3.75;;
29728;SDS011;20055;51.498;11.960;2023-07-08T11:59:38;5.70;;;3.55;;
29728;SDS011;20055;51.498;11.960;2023-07-08T12:02:11;5.57;;;3.88;;
29728;SDS011;20055;51.498;11.960;2023-07-08T12:07:21;7.65;;;3.95;;
29728;SDS011;20055;51.498;11.960;2023-07-08T12:09:57;9.55;;;4.10;;
29728;SDS011;20055;51.498;11.960;2023-07-08T12:12:28;7.30;;;3.67;;
29728;SDS011;20055;51.498;11.960;2023-07-08T12:14:58;5.43;;;4.15;;
29728;SDS011;20055;51.498;11.960;2023-07-08T12:17:31;9.65;;;4.05;;
29728;SDS011;20055;51.498;11.960;2023-07-08T12:19:58;6.18;;;3.58;;
29728;SDS011;20055;51.498;11.960;2023-07-08T12:22:29;5.70;;;4.07;;
29728;SDS011;20055;51.498;11.960;2023-07-08T12:24:55;8.52;;;3.45;;
29728;SDS011;20055;51.498;11.960;2023-07-08T12:27:24;7.63;;;3.88;;
29728;SDS011;20055;51.498;11.960;2023-07-08T12:29:51;7.43;;;3.88;;
29728;SDS011;20055;51.498;11.960;2023-07-08T12:32:17;8.45;;;4.05;;
29728;SDS011;20055;51.498;11.960;2023-07-08T12:34:48;8.95;;;3.88;;
29728;SDS011;20055;51.498;11.960;2023-07-08T12:37:14;10.52;;;3.90;;
29728;SDS011;20055;51.498;11.960;2023-07-08T12:39:41;6.95;;;4.10;;
29728;SDS011;20055;51.498;11.960;2023-07-08T12:42:08;7.90;;;4.30;;
29728;SDS011;20055;51.498;11.960;2023-07-08T12:47:06;8.70;;;4.10;;
29728;SDS011;20055;51.498;11.960;2023-07-08T12:49:33;6.40;;;4.43;;
29728;SDS011;20055;51.498;11.960;2023-07-08T12:51:59;6.72;;;4.43;;
29728;SDS011;20055;51.498;11.960;2023-07-08T12:54:27;9.70;;;4.28;;
29728;SDS011;20055;51.498;11.960;2023-07-08T12:56:53;9.18;;;3.70;;
29728;SDS011;20055;51.498;11.960;2023-07-08T12:59:21;11.65;;;3.80;;
29728;SDS011;20055;51.498;11.960;2023-07-08T13:01:49;4.82;;;3.47;;
29728;SDS011;20055;51.498;11.960;2023-07-08T13:04:17;11.82;;;4.45;;
29728;SDS011;20055;51.498;11.960;2023-07-08T13:06:44;10.40;;;3.83;;
29728;SDS011;20055;51.498;11.960;2023-07-08T13:11:43;9.18;;;3.78;;
29728;SDS011;20055;51.498;11.960;2023-07-08T13:14:11;9.95;;;4.32;;
29728;SDS011;20055;51.498;11.960;2023-07-08T13:16:39;9.27;;;3.80;;
29728;SDS011;20055;51.498;11.960;2023-07-08T13:19:07;6.70;;;4.32;;
29728;SDS011;20055;51.498;11.960;2023-07-08T13:21:37;8.57;;;4.25;;
29728;SDS011;20055;51.498;11.960;2023-07-08T13:24:06;8.95;;;4.22;;
29728;SDS011;20055;51.498;11.960;2023-07-08T13:26:36;6.80;;;3.92;;
29728;SDS011;20055;51.498;11.960;2023-07-08T13:29:13;7.38;;;4.07;;
29728;SDS011;20055;51.498;11.960;2023-07-08T13:31:42;7.35;;;4.68;;
29728;SDS011;20055;51.498;11.960;2023-07-08T13:34:28;5.15;;;3.75;;
29728;SDS011;20055;51.498;11.960;2023-07-08T13:36:57;8.67;;;3.93;;
29728;SDS011;20055;51.498;11.960;2023-07-08T13:39:28;10.00;;;3.92;;
29728;SDS011;20055;51.498;11.960;2023-07-08T13:41:57;11.43;;;4.65;;
29728;SDS011;20055;51.498;11.960;2023-07-08T13:44:26;7.22;;;3.70;;
29728;SDS011;20055;51.498;11.960;2023-07-08T13:46:55;5.82;;;3.78;;
29728;SDS011;20055;51.498;11.960;2023-07-08T13:52:37;7.85;;;3.80;;
29728;SDS011;20055;51.498;11.960;2023-07-08T13:54:48;6.60;;;3.90;;
29728;SDS011;20055;51.498;11.960;2023-07-08T13:57:21;8.90;;;3.92;;
29728;SDS011;20055;51.498;11.960;2023-07-08T13:59:55;7.30;;;4.53;;
29728;SDS011;20055;51.498;11.960;2023-07-08T14:02:22;9.00;;;3.78;;
29728;SDS011;20055;51.498;11.960;2023-07-08T14:04:51;9.00;;;4.35;;
29728;SDS011;20055;51.498;11.960;2023-07-08T14:07:20;6.55;;;3.88;;
29728;SDS011;20055;51.498;11.960;2023-07-08T14:09:49;5.75;;;3.50;;
29728;SDS011;20055;51.498;11.960;2023-07-08T14:12:15;9.57;;;4.00;;
29728;SDS011;20055;51.498;11.960;2023-07-08T14:14:42;6.05;;;3.58;;
29728;SDS011;20055;51.498;11.960;2023-07-08T14:17:09;7.50;;;3.72;;
29728;SDS011;20055;51.498;11.960;2023-07-08T14:19:38;11.30;;;3.92;;
29728;SDS011;20055;51.498;11.960;2023-07-08T14:24:40;9.40;;;3.88;;
29728;SDS011;20055;51.498;11.960;2023-07-08T14:27:08;6.00;;;4.15;;
29728;SDS011;20055;51.498;11.960;2023-07-08T14:29:38;7.07;;;3.83;;
29728;SDS011;20055;51.498;11.960;2023-07-08T14:32:12;8.50;;;4.25;;
29728;SDS011;20055;51.498;11.960;2023-07-08T14:34:42;6.88;;;3.70;;
29728;SDS011;20055;51.498;11.960;2023-07-08T14:37:15;7.55;;;4.00;;
29728;SDS011;20055;51.498;11.960;2023-07-08T14:39:46;12.15;;;4.47;;
29728;SDS011;20055;51.498;11.960;2023-07-08T14:42:13;5.90;;;3.95;;
29728;SDS011;20055;51.498;11.960;2023-07-08T14:44:43;6.95;;;3.55;;
29728;SDS011;20055;51.498;11.960;2023-07-08T14:47:11;4.93;;;3.40;;
29728;SDS011;20055;51.498;11.960;2023-07-08T14:49:39;7.43;;;3.45;;
29728;SDS011;20055;51.498;11.960;2023-07-08T14:52:06;8.25;;;3.83;;
29728;SDS011;20055;51.498;11.960;2023-07-08T14:54:33;5.28;;;3.72;;
29728;SDS011;20055;51.498;11.960;2023-07-08T14:57:00;8.35;;;3.70;;
29728;SDS011;20055;51.498;11.960;2023-07-08T14:59:28;8.48;;;4.28;;
29728;SDS011;20055;51.498;11.960;2023-07-08T15:01:58;7.05;;;4.18;;
29728;SDS011;20055;51.498;11.960;2023-07-08T15:04:25;8.43;;;4.50;;
29728;SDS011;20055;51.498;11.960;2023-07-08T15:06:52;8.40;;;3.67;;
29728;SDS011;20055;51.498;11.960;2023-07-08T15:09:20;7.93;;;4.05;;
29728;SDS011;20055;51.498;11.960;2023-07-08T15:11:46;5.38;;;4.07;;
29728;SDS011;20055;51.498;11.960;2023-07-08T15:14:19;7.22;;;4.38;;
29728;SDS011;20055;51.498;11.960;2023-07-08T15:16:48;7.40;;;3.92;;
29728;SDS011;20055;51.498;11.960;2023-07-08T15:19:16;11.18;;;4.18;;
29728;SDS011;20055;51.498;11.960;2023-07-08T15:21:44;6.55;;;3.78;;
29728;SDS011;20055;51.498;11.960;2023-07-08T15:24:11;8.65;;;4.05;;
29728;SDS011;20055;51.498;11.960;2023-07-08T15:26:39;6.60;;;3.70;;
29728;SDS011;20055;51.498;11.960;2023-07-08T15:29:15;11.13;;;3.88;;
29728;SDS011;20055;51.498;11.960;2023-07-08T15:31:46;7.55;;;4.00;;
29728;SDS011;20055;51.498;11.960;2023-07-08T15:34:19;7.13;;;4.13;;
29728;SDS011;20055;51.498;11.960;2023-07-08T15:36:47;5.78;;;4.15;;
29728;SDS011;20055;51.498;11.960;2023-07-08T15:39:13;7.57;;;4.03;;
29728;SDS011;20055;51.498;11.960;2023-07-08T15:41:40;7.75;;;4.00;;
29728;SDS011;20055;51.498;11.960;2023-07-08T15:44:11;9.30;;;3.83;;
29728;SDS011;20055;51.498;11.960;2023-07-08T15:46:39;8.45;;;4.03;;
29728;SDS011;20055;51.498;11.960;2023-07-08T15:49:10;12.00;;;6.97;;
29728;SDS011;20055;51.498;11.960;2023-07-08T15:51:40;7.50;;;4.10;;
29728;SDS011;20055;51.498;11.960;2023-07-08T15:54:06;9.38;;;4.95;;
29728;SDS011;20055;51.498;11.960;2023-07-08T15:56:32;7.43;;;3.95;;
29728;SDS011;20055;51.498;11.960;2023-07-08T15:58:59;8.45;;;3.90;;
29728;SDS011;20055;51.498;11.960;2023-07-08T16:01:25;7.88;;;4.65;;
29728;SDS011;20055;51.498;11.960;2023-07-08T16:03:52;5.97;;;4.05;;
29728;SDS011;20055;51.498;11.960;2023-07-08T16:06:18;8.40;;;4.28;;